SLCB/CBB METAR and TAF weather

Enter ICAO airport designator
Station Type Date Time Source
SLCB METAR 2018/12/15 02:00 UTC NOAA

SLCB 150200Z 00000KT 9999 FEW030 SCT080 20/04 Q1023


Station Type Date Time Source
SLCB Decoded METAR 2018/12/15 02:00 UTC NOAA

Cochabamba, Bolivia (SLCB) 17-25S 066-11W 2570M
Dec 14, 2018 - 09:00 PM EST / 2018.12.15 0200 UTC
Wind: Calm:0
Visibility: greater than 7 mile(s):0
Sky conditions: partly cloudy
Temperature: 68 F (20 C)
Dew Point: 39 F (4 C)
Relative Humidity: 34%
Pressure (altimeter): 30.21 in. Hg (1023 hPa)
ob: SLCB 150200Z 00000KT 9999 FEW030 SCT080 20/04 Q1023
cycle: 2

Station Type Date Time Source
SLCB TAF 2018/12/14 18:39 UTC NOAA

TAF TAF SLCB 141600Z 1418/1518 04012KT 9999 FEW033 FEW036CB TX32/1419Z TN14/1510Z
BECMG 1502/1504 00000KT FEW030 SCT070


Example: see airport list